sensor_id;sensor_type;location;lat;lon;timestamp;temperature;humidity
30300;DHT22;17110;52.602;12.998;2024-01-15T00:04:46;2.10;99.90
30300;DHT22;17110;52.602;12.998;2024-01-15T00:09:47;2.10;99.90
30300;DHT22;17110;52.602;12.998;2024-01-15T00:14:47;2.20;99.90
30300;DHT22;17110;52.602;12.998;2024-01-15T00:19:49;2.20;99.90
30300;DHT22;17110;52.602;12.998;2024-01-15T00:24:50;2.20;99.90
30300;DHT22;17110;52.602;12.998;2024-01-15T00:29:50;2.30;99.90
30300;DHT22;17110;52.602;12.998;2024-01-15T00:34:52;2.20;99.90
30300;DHT22;17110;52.602;12.998;2024-01-15T00:39:53;2.30;99.90
30300;DHT22;17110;52.602;12.998;2024-01-15T00:44:54;2.40;99.90
30300;DHT22;17110;52.602;12.998;2024-01-15T00:49:55;2.30;99.90
30300;DHT22;17110;52.602;12.998;2024-01-15T00:54:56;2.30;99.90
30300;DHT22;17110;52.602;12.998;2024-01-15T00:59:57;2.10;99.90
30300;DHT22;17110;52.602;12.998;2024-01-15T01:04:59;2.00;99.90
30300;DHT22;17110;52.602;12.998;2024-01-15T01:09:59;2.00;99.90
30300;DHT22;17110;52.602;12.998;2024-01-15T01:15:00;2.00;99.90
30300;DHT22;17110;52.602;12.998;2024-01-15T01:20:03;2.00;99.90
30300;DHT22;17110;52.602;12.998;2024-01-15T01:25:04;2.10;99.90
30300;DHT22;17110;52.602;12.998;2024-01-15T01:30:06;2.00;99.90
30300;DHT22;17110;52.602;12.998;2024-01-15T01:35:08;2.00;99.90
30300;DHT22;17110;52.602;12.998;2024-01-15T01:40:09;1.90;99.90
30300;DHT22;17110;52.602;12.998;2024-01-15T01:45:10;2.00;99.90
30300;DHT22;17110;52.602;12.998;2024-01-15T01:50:13;1.90;99.90
30300;DHT22;17110;52.602;12.998;2024-01-15T01:55:14;1.90;99.90
30300;DHT22;17110;52.602;12.998;2024-01-15T02:00:15;1.90;99.90
30300;DHT22;17110;52.602;12.998;2024-01-15T02:05:18;1.90;99.90
30300;DHT22;17110;52.602;12.998;2024-01-15T02:10:19;1.90;99.90
30300;DHT22;17110;52.602;12.998;2024-01-15T02:15:20;1.90;99.90
30300;DHT22;17110;52.602;12.998;2024-01-15T02:20:22;1.90;99.90
30300;DHT22;17110;52.602;12.998;2024-01-15T02:25:24;1.90;99.90
30300;DHT22;17110;52.602;12.998;2024-01-15T02:30:25;1.80;99.90
30300;DHT22;17110;52.602;12.998;2024-01-15T02:35:27;1.70;99.90
30300;DHT22;17110;52.602;12.998;2024-01-15T02:40:29;1.70;99.90
30300;DHT22;17110;52.602;12.998;2024-01-15T02:45:30;1.70;99.90
30300;DHT22;17110;52.602;12.998;2024-01-15T02:50:30;1.80;99.90
30300;DHT22;17110;52.602;12.998;2024-01-15T02:55:32;1.80;99.90
30300;DHT22;17110;52.602;12.998;2024-01-15T03:00:33;2.00;99.90
30300;DHT22;17110;52.602;12.998;2024-01-15T03:05:34;2.00;99.90
30300;DHT22;17110;52.602;12.998;2024-01-15T03:10:36;1.90;99.90
30300;DHT22;17110;52.602;12.998;2024-01-15T03:15:36;2.00;99.90
30300;DHT22;17110;52.602;12.998;2024-01-15T03:20:37;1.90;99.90
30300;DHT22;17110;52.602;12.998;2024-01-15T03:25:39;1.90;99.90
30300;DHT22;17110;52.602;12.998;2024-01-15T03:30:40;2.00;99.90
30300;DHT22;17110;52.602;12.998;2024-01-15T03:35:40;2.00;99.90
30300;DHT22;17110;52.602;12.998;2024-01-15T03:40:42;2.00;99.90
30300;DHT22;17110;52.602;12.998;2024-01-15T03:45:43;2.10;99.90
30300;DHT22;17110;52.602;12.998;2024-01-15T03:50:44;2.10;99.90
30300;DHT22;17110;52.602;12.998;2024-01-15T03:55:45;2.10;99.90
30300;DHT22;17110;52.602;12.998;2024-01-15T04:00:46;2.10;99.90
30300;DHT22;17110;52.602;12.998;2024-01-15T04:05:47;2.10;99.90
30300;DHT22;17110;52.602;12.998;2024-01-15T04:10:49;2.00;99.90
30300;DHT22;17110;52.602;12.998;2024-01-15T04:15:49;2.10;99.90
30300;DHT22;17110;52.602;12.998;2024-01-15T04:20:50;2.20;99.90
30300;DHT22;17110;52.602;12.998;2024-01-15T04:25:52;2.10;99.90
30300;DHT22;17110;52.602;12.998;2024-01-15T04:30:52;2.20;99.90
30300;DHT22;17110;52.602;12.998;2024-01-15T04:35:53;2.20;99.90
30300;DHT22;17110;52.602;12.998;2024-01-15T04:40:55;2.20;99.90
30300;DHT22;17110;52.602;12.998;2024-01-15T04:45:56;2.20;99.90
30300;DHT22;17110;52.602;12.998;2024-01-15T04:50:56;2.30;99.90
30300;DHT22;17110;52.602;12.998;2024-01-15T04:55:58;2.20;99.90
30300;DHT22;17110;52.602;12.998;2024-01-15T05:00:59;2.30;99.90
30300;DHT22;17110;52.602;12.998;2024-01-15T05:05:59;2.30;99.90
30300;DHT22;17110;52.602;12.998;2024-01-15T05:11:01;2.30;99.90
30300;DHT22;17110;52.602;12.998;2024-01-15T05:16:02;2.30;99.90
30300;DHT22;17110;52.602;12.998;2024-01-15T05:21:03;2.30;99.90
30300;DHT22;17110;52.602;12.998;2024-01-15T05:26:05;2.30;99.90
30300;DHT22;17110;52.602;12.998;2024-01-15T05:31:06;2.30;99.90
30300;DHT22;17110;52.602;12.998;2024-01-15T05:36:07;2.30;99.90
30300;DHT22;17110;52.602;12.998;2024-01-15T05:41:09;2.40;99.90
30300;DHT22;17110;52.602;12.998;2024-01-15T05:46:09;2.30;99.90
30300;DHT22;17110;52.602;12.998;2024-01-15T05:51:10;2.30;99.90
30300;DHT22;17110;52.602;12.998;2024-01-15T05:56:12;2.30;99.90
30300;DHT22;17110;52.602;12.998;2024-01-15T06:01:13;2.30;99.90
30300;DHT22;17110;52.602;12.998;2024-01-15T06:06:13;2.20;99.90
30300;DHT22;17110;52.602;12.998;2024-01-15T06:11:15;2.20;99.90
30300;DHT22;17110;52.602;12.998;2024-01-15T06:16:16;2.30;99.90
30300;DHT22;17110;52.602;12.998;2024-01-15T06:21:17;2.30;99.90
30300;DHT22;17110;52.602;12.998;2024-01-15T06:26:19;2.30;99.90
30300;DHT22;17110;52.602;12.998;2024-01-15T06:31:19;2.30;99.90
30300;DHT22;17110;52.602;12.998;2024-01-15T06:36:20;2.20;99.90
30300;DHT22;17110;52.602;12.998;2024-01-15T06:41:22;2.30;99.90
30300;DHT22;17110;52.602;12.998;2024-01-15T06:46:23;2.30;99.90
30300;DHT22;17110;52.602;12.998;2024-01-15T06:51:23;2.30;99.90
30300;DHT22;17110;52.602;12.998;2024-01-15T06:56:25;2.40;99.90
30300;DHT22;17110;52.602;12.998;2024-01-15T07:01:26;2.40;99.90
30300;DHT22;17110;52.602;12.998;2024-01-15T07:06:27;2.50;99.90
30300;DHT22;17110;52.602;12.998;2024-01-15T07:11:29;2.50;99.90
30300;DHT22;17110;52.602;12.998;2024-01-15T07:16:29;2.60;99.90
30300;DHT22;17110;52.602;12.998;2024-01-15T07:21:30;2.60;99.90
30300;DHT22;17110;52.602;12.998;2024-01-15T07:26:32;2.60;99.90
30300;DHT22;17110;52.602;12.998;2024-01-15T07:31:33;2.60;99.90
30300;DHT22;17110;52.602;12.998;2024-01-15T07:36:33;2.50;99.90
30300;DHT22;17110;52.602;12.998;2024-01-15T07:41:35;2.40;99.90
30300;DHT22;17110;52.602;12.998;2024-01-15T07:46:36;2.50;99.90
30300;DHT22;17110;52.602;12.998;2024-01-15T07:51:37;2.50;99.90
30300;DHT22;17110;52.602;12.998;2024-01-15T08:02:07;2.50;99.90
30300;DHT22;17110;52.602;12.998;2024-01-15T08:07:08;2.60;99.90
30300;DHT22;17110;52.602;12.998;2024-01-15T08:12:09;2.60;99.90
30300;DHT22;17110;52.602;12.998;2024-01-15T08:17:11;2.50;99.90
30300;DHT22;17110;52.602;12.998;2024-01-15T08:22:11;2.50;99.90
30300;DHT22;17110;52.602;12.998;2024-01-15T08:27:12;2.60;99.90
30300;DHT22;17110;52.602;12.998;2024-01-15T08:32:14;2.70;99.90
30300;DHT22;17110;52.602;12.998;2024-01-15T08:37:15;2.70;99.90
30300;DHT22;17110;52.602;12.998;2024-01-15T08:42:15;2.70;99.90
30300;DHT22;17110;52.602;12.998;2024-01-15T08:47:17;2.70;99.90
30300;DHT22;17110;52.602;12.998;2024-01-15T08:52:18;2.70;99.90
30300;DHT22;17110;52.602;12.998;2024-01-15T08:57:18;2.80;99.90
30300;DHT22;17110;52.602;12.998;2024-01-15T09:02:20;2.80;99.90
30300;DHT22;17110;52.602;12.998;2024-01-15T09:07:21;2.80;99.90
30300;DHT22;17110;52.602;12.998;2024-01-15T09:12:22;2.90;99.90
30300;DHT22;17110;52.602;12.998;2024-01-15T09:17:23;3.00;99.90
30300;DHT22;17110;52.602;12.998;2024-01-15T09:22:24;3.00;99.90
30300;DHT22;17110;52.602;12.998;2024-01-15T09:27:25;3.00;99.90
30300;DHT22;17110;52.602;12.998;2024-01-15T09:32:27;3.10;99.90
30300;DHT22;17110;52.602;12.998;2024-01-15T09:37:27;3.10;99.90
30300;DHT22;17110;52.602;12.998;2024-01-15T09:42:28;3.00;99.90
30300;DHT22;17110;52.602;12.998;2024-01-15T09:47:30;3.00;99.90
30300;DHT22;17110;52.602;12.998;2024-01-15T09:52:31;3.20;99.90
30300;DHT22;17110;52.602;12.998;2024-01-15T09:57:32;3.20;99.90
30300;DHT22;17110;52.602;12.998;2024-01-15T10:02:35;3.20;99.90
30300;DHT22;17110;52.602;12.998;2024-01-15T10:07:37;3.30;99.90
30300;DHT22;17110;52.602;12.998;2024-01-15T10:12:39;3.50;99.90
30300;DHT22;17110;52.602;12.998;2024-01-15T10:17:41;3.60;99.90
30300;DHT22;17110;52.602;12.998;2024-01-15T10:22:42;3.70;99.90
30300;DHT22;17110;52.602;12.998;2024-01-15T10:27:43;3.60;99.90
30300;DHT22;17110;52.602;12.998;2024-01-15T10:32:57;3.50;99.90
30300;DHT22;17110;52.602;12.998;2024-01-15T10:37:58;3.50;99.90
30300;DHT22;17110;52.602;12.998;2024-01-15T10:42:59;3.50;99.90
30300;DHT22;17110;52.602;12.998;2024-01-15T10:48:01;3.40;99.90
30300;DHT22;17110;52.602;12.998;2024-01-15T10:53:03;3.60;99.90
30300;DHT22;17110;52.602;12.998;2024-01-15T10:58:04;3.70;99.90
30300;DHT22;17110;52.602;12.998;2024-01-15T11:03:07;3.70;99.90
30300;DHT22;17110;52.602;12.998;2024-01-15T11:08:08;3.60;99.90
30300;DHT22;17110;52.602;12.998;2024-01-15T11:13:10;3.50;99.90
30300;DHT22;17110;52.602;12.998;2024-01-15T11:18:12;3.40;99.90
30300;DHT22;17110;52.602;12.998;2024-01-15T11:23:44;3.60;99.90
30300;DHT22;17110;52.602;12.998;2024-01-15T11:28:48;3.50;99.90
30300;DHT22;17110;52.602;12.998;2024-01-15T11:33:50;3.30;99.90
30300;DHT22;17110;52.602;12.998;2024-01-15T11:38:51;3.10;99.90
30300;DHT22;17110;52.602;12.998;2024-01-15T11:43:52;3.10;99.90
30300;DHT22;17110;52.602;12.998;2024-01-15T11:49:02;3.10;99.90
30300;DHT22;17110;52.602;12.998;2024-01-15T11:54:06;3.10;99.90
30300;DHT22;17110;52.602;12.998;2024-01-15T11:59:09;3.10;99.90
30300;DHT22;17110;52.602;12.998;2024-01-15T12:04:11;3.00;99.90
30300;DHT22;17110;52.602;12.998;2024-01-15T12:09:12;3.00;99.90
30300;DHT22;17110;52.602;12.998;2024-01-15T12:14:13;2.90;99.90
30300;DHT22;17110;52.602;12.998;2024-01-15T12:19:15;2.90;99.90
30300;DHT22;17110;52.602;12.998;2024-01-15T12:24:17;2.90;99.90
30300;DHT22;17110;52.602;12.998;2024-01-15T12:29:18;2.80;99.90
30300;DHT22;17110;52.602;12.998;2024-01-15T12:34:20;2.60;99.90
30300;DHT22;17110;52.602;12.998;2024-01-15T12:39:20;2.70;99.90
30300;DHT22;17110;52.602;12.998;2024-01-15T12:44:21;2.60;99.90
30300;DHT22;17110;52.602;12.998;2024-01-15T12:49:24;2.70;99.90
30300;DHT22;17110;52.602;12.998;2024-01-15T12:54:25;2.80;99.90
30300;DHT22;17110;52.602;12.998;2024-01-15T12:59:26;2.80;99.90
30300;DHT22;17110;52.602;12.998;2024-01-15T13:04:28;2.80;99.90
30300;DHT22;17110;52.602;12.998;2024-01-15T13:09:29;2.80;99.90
30300;DHT22;17110;52.602;12.998;2024-01-15T13:14:29;2.80;99.90
30300;DHT22;17110;52.602;12.998;2024-01-15T13:19:31;2.80;99.90
30300;DHT22;17110;52.602;12.998;2024-01-15T13:24:32;2.80;99.90
30300;DHT22;17110;52.602;12.998;2024-01-15T13:29:33;2.80;99.90
30300;DHT22;17110;52.602;12.998;2024-01-15T13:34:35;2.70;99.90
30300;DHT22;17110;52.602;12.998;2024-01-15T13:39:35;2.60;99.90
30300;DHT22;17110;52.602;12.998;2024-01-15T13:44:36;2.70;99.90
30300;DHT22;17110;52.602;12.998;2024-01-15T13:49:38;2.70;99.90
30300;DHT22;17110;52.602;12.998;2024-01-15T13:54:38;2.70;99.90
30300;DHT22;17110;52.602;12.998;2024-01-15T13:59:39;2.70;99.90
30300;DHT22;17110;52.602;12.998;2024-01-15T14:04:41;2.70;99.90
30300;DHT22;17110;52.602;12.998;2024-01-15T14:09:42;2.60;99.90
30300;DHT22;17110;52.602;12.998;2024-01-15T14:14:42;2.70;99.90
30300;DHT22;17110;52.602;12.998;2024-01-15T14:19:44;2.70;99.90
30300;DHT22;17110;52.602;12.998;2024-01-15T14:24:45;2.60;99.90
30300;DHT22;17110;52.602;12.998;2024-01-15T14:29:45;2.60;99.90
30300;DHT22;17110;52.602;12.998;2024-01-15T14:34:47;2.60;99.90
30300;DHT22;17110;52.602;12.998;2024-01-15T14:39:48;2.50;99.90
30300;DHT22;17110;52.602;12.998;2024-01-15T14:44:49;2.40;99.90
30300;DHT22;17110;52.602;12.998;2024-01-15T14:49:50;2.40;99.90
30300;DHT22;17110;52.602;12.998;2024-01-15T14:54:51;2.50;99.90
30300;DHT22;17110;52.602;12.998;2024-01-15T14:59:52;2.40;99.90
30300;DHT22;17110;52.602;12.998;2024-01-15T15:04:54;2.40;99.90
30300;DHT22;17110;52.602;12.998;2024-01-15T15:09:55;2.40;99.90
30300;DHT22;17110;52.602;12.998;2024-01-15T15:14:55;2.30;99.90
30300;DHT22;17110;52.602;12.998;2024-01-15T15:19:57;2.30;99.90
30300;DHT22;17110;52.602;12.998;2024-01-15T15:24:58;2.20;99.90
30300;DHT22;17110;52.602;12.998;2024-01-15T15:29:58;2.10;99.90
30300;DHT22;17110;52.602;12.998;2024-01-15T15:35:00;2.20;99.90
30300;DHT22;17110;52.602;12.998;2024-01-15T15:40:01;2.10;99.90
30300;DHT22;17110;52.602;12.998;2024-01-15T15:45:02;2.00;99.90
30300;DHT22;17110;52.602;12.998;2024-01-15T15:50:05;2.00;99.90
30300;DHT22;17110;52.602;12.998;2024-01-15T15:55:07;1.90;99.90
30300;DHT22;17110;52.602;12.998;2024-01-15T16:00:08;1.90;99.90
30300;DHT22;17110;52.602;12.998;2024-01-15T16:05:14;1.80;99.90
30300;DHT22;17110;52.602;12.998;2024-01-15T16:10:15;1.80;99.90
30300;DHT22;17110;52.602;12.998;2024-01-15T16:15:20;1.70;99.90
30300;DHT22;17110;52.602;12.998;2024-01-15T16:20:22;1.70;99.90
30300;DHT22;17110;52.602;12.998;2024-01-15T16:25:23;1.70;99.90
30300;DHT22;17110;52.602;12.998;2024-01-15T16:30:24;1.60;99.90
30300;DHT22;17110;52.602;12.998;2024-01-15T16:35:26;1.60;99.90
30300;DHT22;17110;52.602;12.998;2024-01-15T16:40:26;1.50;99.90
30300;DHT22;17110;52.602;12.998;2024-01-15T16:45:27;1.40;99.90
30300;DHT22;17110;52.602;12.998;2024-01-15T16:50:29;1.40;99.90
30300;DHT22;17110;52.602;12.998;2024-01-15T16:55:30;1.30;99.90
30300;DHT22;17110;52.602;12.998;2024-01-15T17:00:30;1.30;99.90
30300;DHT22;17110;52.602;12.998;2024-01-15T17:05:32;1.20;99.90
30300;DHT22;17110;52.602;12.998;2024-01-15T17:10:33;1.20;99.90
30300;DHT22;17110;52.602;12.998;2024-01-15T17:15:33;1.10;99.90
30300;DHT22;17110;52.602;12.998;2024-01-15T17:20:35;1.10;99.90
30300;DHT22;17110;52.602;12.998;2024-01-15T17:25:36;1.10;99.90
30300;DHT22;17110;52.602;12.998;2024-01-15T17:30:37;1.10;99.90
30300;DHT22;17110;52.602;12.998;2024-01-15T17:35:39;1.20;99.90
30300;DHT22;17110;52.602;12.998;2024-01-15T17:40:39;1.20;99.90
30300;DHT22;17110;52.602;12.998;2024-01-15T17:45:40;1.20;99.90
30300;DHT22;17110;52.602;12.998;2024-01-15T17:50:42;1.20;99.90
30300;DHT22;17110;52.602;12.998;2024-01-15T17:55:43;1.20;99.90
30300;DHT22;17110;52.602;12.998;2024-01-15T18:00:43;1.30;99.90
30300;DHT22;17110;52.602;12.998;2024-01-15T18:05:45;1.20;99.90
30300;DHT22;17110;52.602;12.998;2024-01-15T18:10:46;1.10;99.90
30300;DHT22;17110;52.602;12.998;2024-01-15T18:15:46;1.10;99.90
30300;DHT22;17110;52.602;12.998;2024-01-15T18:20:48;1.10;99.90
30300;DHT22;17110;52.602;12.998;2024-01-15T18:25:50;1.10;99.90
30300;DHT22;17110;52.602;12.998;2024-01-15T18:30:51;1.10;99.90
30300;DHT22;17110;52.602;12.998;2024-01-15T18:35:53;1.10;99.90
30300;DHT22;17110;52.602;12.998;2024-01-15T18:40:53;1.10;99.90
30300;DHT22;17110;52.602;12.998;2024-01-15T18:45:56;1.00;99.90
30300;DHT22;17110;52.602;12.998;2024-01-15T18:50:58;0.90;99.90
30300;DHT22;17110;52.602;12.998;2024-01-15T18:55:58;0.90;99.90
30300;DHT22;17110;52.602;12.998;2024-01-15T19:01:01;0.80;99.90
30300;DHT22;17110;52.602;12.998;2024-01-15T19:06:03;0.70;99.90
30300;DHT22;17110;52.602;12.998;2024-01-15T19:11:04;0.70;99.90
30300;DHT22;17110;52.602;12.998;2024-01-15T19:16:04;0.60;99.90
30300;DHT22;17110;52.602;12.998;2024-01-15T19:21:06;0.60;99.90
30300;DHT22;17110;52.602;12.998;2024-01-15T19:26:07;0.50;99.90
30300;DHT22;17110;52.602;12.998;2024-01-15T19:31:08;0.60;99.90
30300;DHT22;17110;52.602;12.998;2024-01-15T19:36:19;0.50;99.90
30300;DHT22;17110;52.602;12.998;2024-01-15T19:41:20;0.50;99.90
30300;DHT22;17110;52.602;12.998;2024-01-15T19:46:20;0.50;99.90
30300;DHT22;17110;52.602;12.998;2024-01-15T19:51:22;0.60;99.90
30300;DHT22;17110;52.602;12.998;2024-01-15T19:56:23;0.50;99.90
30300;DHT22;17110;52.602;12.998;2024-01-15T20:01:24;0.50;99.90
30300;DHT22;17110;52.602;12.998;2024-01-15T20:06:25;0.40;99.90
30300;DHT22;17110;52.602;12.998;2024-01-15T20:11:26;0.50;99.90
30300;DHT22;17110;52.602;12.998;2024-01-15T20:16:27;0.40;99.90
30300;DHT22;17110;52.602;12.998;2024-01-15T20:21:29;0.40;99.90
30300;DHT22;17110;52.602;12.998;2024-01-15T20:26:29;0.40;99.90
30300;DHT22;17110;52.602;12.998;2024-01-15T20:31:30;0.30;99.90
30300;DHT22;17110;52.602;12.998;2024-01-15T20:36:32;0.20;99.90
30300;DHT22;17110;52.602;12.998;2024-01-15T20:41:33;0.20;99.90
30300;DHT22;17110;52.602;12.998;2024-01-15T20:46:33;0.20;99.90
30300;DHT22;17110;52.602;12.998;2024-01-15T20:51:35;0.20;99.90
30300;DHT22;17110;52.602;12.998;2024-01-15T20:56:36;0.20;99.90
30300;DHT22;17110;52.602;12.998;2024-01-15T21:01:36;0.20;99.90
30300;DHT22;17110;52.602;12.998;2024-01-15T21:06:39;0.20;99.90
30300;DHT22;17110;52.602;12.998;2024-01-15T21:11:39;0.30;99.90
30300;DHT22;17110;52.602;12.998;2024-01-15T21:16:40;0.30;99.90
30300;DHT22;17110;52.602;12.998;2024-01-15T21:21:43;0.30;99.90
30300;DHT22;17110;52.602;12.998;2024-01-15T21:26:43;0.30;99.90
30300;DHT22;17110;52.602;12.998;2024-01-15T21:31:44;0.30;99.90
30300;DHT22;17110;52.602;12.998;2024-01-15T21:36:46;0.20;99.90
30300;DHT22;17110;52.602;12.998;2024-01-15T21:41:47;0.20;99.90
30300;DHT22;17110;52.602;12.998;2024-01-15T21:46:47;0.30;99.90
30300;DHT22;17110;52.602;12.998;2024-01-15T21:51:49;0.30;99.90
30300;DHT22;17110;52.602;12.998;2024-01-15T21:56:50;0.30;99.90
30300;DHT22;17110;52.602;12.998;2024-01-15T22:01:50;0.30;99.90
30300;DHT22;17110;52.602;12.998;2024-01-15T22:06:52;0.40;99.90
30300;DHT22;17110;52.602;12.998;2024-01-15T22:11:53;0.30;99.90
30300;DHT22;17110;52.602;12.998;2024-01-15T22:16:54;0.40;99.90
30300;DHT22;17110;52.602;12.998;2024-01-15T22:21:56;0.30;99.90
30300;DHT22;17110;52.602;12.998;2024-01-15T22:26:56;0.40;99.90
30300;DHT22;17110;52.602;12.998;2024-01-15T22:31:57;0.40;99.90
30300;DHT22;17110;52.602;12.998;2024-01-15T22:36:59;0.30;99.90
30300;DHT22;17110;52.602;12.998;2024-01-15T22:41:59;0.30;99.90
30300;DHT22;17110;52.602;12.998;2024-01-15T22:47:00;0.30;99.90
30300;DHT22;17110;52.602;12.998;2024-01-15T22:52:02;0.30;99.90
30300;DHT22;17110;52.602;12.998;2024-01-15T22:57:04;0.30;99.90
30300;DHT22;17110;52.602;12.998;2024-01-15T23:02:05;0.30;99.90
30300;DHT22;17110;52.602;12.998;2024-01-15T23:07:07;0.30;99.90
30300;DHT22;17110;52.602;12.998;2024-01-15T23:12:08;0.40;99.90
30300;DHT22;17110;52.602;12.998;2024-01-15T23:17:09;0.40;99.90
30300;DHT22;17110;52.602;12.998;2024-01-15T23:22:11;0.40;99.90
30300;DHT22;17110;52.602;12.998;2024-01-15T23:27:11;0.40;99.90
30300;DHT22;17110;52.602;12.998;2024-01-15T23:32:12;0.30;99.90
30300;DHT22;17110;52.602;12.998;2024-01-15T23:37:14;0.30;99.90
30300;DHT22;17110;52.602;12.998;2024-01-15T23:42:14;0.20;99.90
30300;DHT22;17110;52.602;12.998;2024-01-15T23:47:15;0.20;99.90
30300;DHT22;17110;52.602;12.998;2024-01-15T23:52:17;0.10;99.90
30300;DHT22;17110;52.602;12.998;2024-01-15T23:57:18;0.10;99.90
